Time;durP1;ratioP1;P1;durP2;ratioP2;P2;SDS_P1;SDS_P2;PMS_P1;PMS_P2;Temp;Humidity;BMP_temperature;BMP_pressure;BME280_temperature;BME280_humidity;BME280_pressure;Samples;Min_cycle;Max_cycle;Signal;HPM_P1;HPM_P2
2021/12/25 00:00:24;;;;;;;2.67;1.15;;;;;;;-6.25;93.34;101156.22;4824723;29;20199;-82
2021/12/25 00:02:50;;;;;;;2.78;0.85;;;;;;;-6.20;93.88;101153.78;4826016;29;20247;-80
2021/12/25 00:05:16;;;;;;;1.85;0.70;;;;;;;-6.16;93.94;101163.47;4824832;29;20250;-80
2021/12/25 00:07:41;;;;;;;3.80;1.00;;;;;;;-6.18;93.87;101159.06;4841011;29;20178;-83
2021/12/25 00:10:07;;;;;;;6.45;0.90;;;;;;;-5.77;93.87;101163.03;4841990;29;20293;-82
2021/12/25 00:12:33;;;;;;;5.28;1.00;;;;;;;-5.83;93.30;101162.81;4826809;29;20171;-81
2021/12/25 00:15:00;;;;;;;2.05;0.82;;;;;;;-5.70;92.48;101162.38;4830742;29;20269;-79
2021/12/25 00:17:26;;;;;;;0.93;0.82;;;;;;;-5.63;92.35;101176.53;4830429;29;20286;-81
2021/12/25 00:19:55;;;;;;;0.95;0.68;;;;;;;-5.59;91.59;101181.91;4829199;29;20799;-81
2021/12/25 00:22:21;;;;;;;3.80;0.70;;;;;;;-5.57;91.91;101181.06;4831057;29;20679;-79
2021/12/25 00:24:48;;;;;;;4.00;0.85;;;;;;;-5.45;91.92;101198.00;4815132;29;20570;-79
2021/12/25 00:30:15;;;;;;;1.88;0.85;;;;;;;-5.16;91.57;101190.22;4836651;29;20219;-79
2021/12/25 00:32:51;;;;;;;6.40;1.40;;;;;;;-5.19;90.94;101193.63;4830934;29;20186;-79
2021/12/25 00:35:17;;;;;;;3.95;0.80;;;;;;;-5.20;91.02;101193.59;4834154;29;20179;-79
2021/12/25 00:37:42;;;;;;;5.00;1.38;;;;;;;-5.26;90.97;101196.88;4833449;29;20757;-79
2021/12/25 00:40:08;;;;;;;2.15;0.82;;;;;;;-5.24;90.97;101208.25;4860243;24;20634;-82
2021/12/25 00:42:34;;;;;;;4.28;0.93;;;;;;;-5.35;90.72;101191.38;4842781;29;20269;-84
2021/12/25 00:45:00;;;;;;;3.80;1.00;;;;;;;-5.42;91.07;101203.34;4812942;29;20221;-81
2021/12/25 00:47:25;;;;;;;0.60;0.60;;;;;;;-5.42;91.28;101219.00;4830003;29;20674;-84
2021/12/25 00:49:51;;;;;;;1.67;1.13;;;;;;;-5.50;91.23;101203.94;4855338;29;20206;-81
2021/12/25 00:52:17;;;;;;;1.30;0.75;;;;;;;-5.51;92.12;101199.53;4811396;29;20254;-82
2021/12/25 00:54:42;;;;;;;4.03;1.05;;;;;;;-5.51;92.56;101209.97;4826483;29;20692;-82
2021/12/25 00:57:08;;;;;;;4.50;0.90;;;;;;;-5.52;92.37;101210.81;4811639;29;20183;-82
2021/12/25 00:59:34;;;;;;;2.38;0.75;;;;;;;-5.61;92.32;101211.41;4842590;29;20179;-83
2021/12/25 01:01:59;;;;;;;3.95;0.90;;;;;;;-5.70;92.24;101218.94;4811789;29;20298;-82
2021/12/25 01:04:26;;;;;;;2.97;1.23;;;;;;;-5.60;92.31;101223.59;4794333;29;20279;-82
2021/12/25 01:06:52;;;;;;;3.67;1.00;;;;;;;-5.49;92.38;101221.34;4789537;29;20195;-80
2021/12/25 01:09:17;;;;;;;2.00;0.98;;;;;;;-5.44;92.72;101235.47;4789352;29;20180;-81
2021/12/25 01:11:47;;;;;;;3.75;1.40;;;;;;;-5.22;92.67;101234.44;4806045;29;20183;-80
2021/12/25 01:14:23;;;;;;;5.45;1.10;;;;;;;-5.16;93.01;101239.84;4789487;29;20618;-82
2021/12/25 01:25:32;;;;;;;4.28;1.17;;;;;;;-5.10;92.94;101249.59;4786636;29;20643;-82
2021/12/25 01:28:49;;;;;;;4.00;1.20;;;;;;;-5.15;92.48;101238.13;4791160;29;20567;-82
2021/12/25 01:31:09;;;;;;;2.13;0.90;;;;;;;-5.29;92.98;101248.13;4806138;29;20267;-81
2021/12/25 01:37:05;;;;;;;3.83;1.48;;;;;;;-5.40;93.18;101251.28;4842153;29;20701;-82
2021/12/25 01:41:11;;;;;;;1.27;0.93;;;;;;;-5.44;93.59;101257.22;4807243;29;20254;-85
2021/12/25 01:49:25;;;;;;;0.95;0.80;;;;;;;-5.47;94.11;101267.56;4805720;29;20279;-81
2021/12/25 01:51:50;;;;;;;4.63;1.05;;;;;;;-5.45;93.97;101260.66;4791587;29;20208;-81
2021/12/25 01:54:16;;;;;;;2.33;0.95;;;;;;;-5.55;94.11;101273.34;4790472;29;20215;-81
2021/12/25 01:56:41;;;;;;;4.55;0.75;;;;;;;-5.61;94.02;101269.72;4791576;29;20210;-81
2021/12/25 01:59:08;;;;;;;1.27;1.10;;;;;;;-5.65;93.95;101278.25;4792218;29;20195;-84
2021/12/25 02:01:33;;;;;;;1.85;0.93;;;;;;;-5.73;94.15;101263.16;4806354;29;20211;-81
2021/12/25 02:03:59;;;;;;;2.67;0.98;;;;;;;-5.82;94.17;101266.34;4791997;29;20662;-81
2021/12/25 02:06:25;;;;;;;2.45;1.00;;;;;;;-5.84;94.28;101271.53;4791507;29;20579;-81
2021/12/25 02:08:50;;;;;;;9.20;1.20;;;;;;;-6.04;94.14;101275.16;4792058;29;20620;-83
2021/12/25 02:11:16;;;;;;;2.80;1.15;;;;;;;-6.12;95.11;101284.41;4792325;29;20219;-81
2021/12/25 02:13:45;;;;;;;2.33;1.08;;;;;;;-6.13;95.15;101290.47;4792461;29;20274;-80
2021/12/25 02:16:29;;;;;;;4.43;1.13;;;;;;;-6.23;95.31;101284.94;4792688;29;20694;-83
2021/12/25 02:21:41;;;;;;;1.15;0.73;;;;;;;-6.36;95.61;101331.31;4806076;29;20264;-82
2021/12/25 02:24:11;;;;;;;1.50;0.85;;;;;;;-6.42;95.85;101312.03;4803901;29;20617;-81
2021/12/25 02:26:40;;;;;;;2.70;1.00;;;;;;;-6.36;96.15;101319.19;4804525;29;20176;-81
2021/12/25 02:29:06;;;;;;;1.80;1.35;;;;;;;-6.45;96.74;101319.75;4789110;29;20184;-82
2021/12/25 02:31:32;;;;;;;3.30;1.10;;;;;;;-6.42;96.69;101329.38;4790994;29;20743;-81
2021/12/25 02:33:57;;;;;;;4.80;1.20;;;;;;;-6.43;96.52;101319.78;4807916;29;20196;-84
2021/12/25 02:36:23;;;;;;;2.78;1.20;;;;;;;-6.33;97.06;101329.72;4808693;29;20188;-81
2021/12/25 02:38:49;;;;;;;3.72;1.20;;;;;;;-6.56;96.85;101328.84;4793767;29;20190;-81
2021/12/25 02:41:16;;;;;;;2.70;1.20;;;;;;;-6.50;97.14;101328.19;4791850;29;20716;-82
2021/12/25 02:43:46;;;;;;;2.90;1.23;;;;;;;-6.48;96.54;101339.56;4792443;29;20645;-82
2021/12/25 02:46:14;;;;;;;3.40;1.30;;;;;;;-6.52;96.63;101340.28;4792587;29;20727;-83
2021/12/25 02:48:41;;;;;;;1.60;1.10;;;;;;;-6.51;96.06;101339.47;4791918;29;20536;-83
2021/12/25 02:51:09;;;;;;;2.58;1.13;;;;;;;-6.54;95.84;101328.91;4794037;29;20196;-84
2021/12/25 02:53:36;;;;;;;2.58;1.17;;;;;;;-6.50;96.05;101344.72;4825055;29;20215;-84
2021/12/25 02:56:02;;;;;;;2.75;1.30;;;;;;;-6.64;95.65;101338.09;4801177;29;20203;-83
2021/12/25 02:58:31;;;;;;;1.17;1.10;;;;;;;-6.58;95.62;101342.63;4798819;29;20210;-83
2021/12/25 03:01:02;;;;;;;2.33;1.20;;;;;;;-6.78;95.47;101339.25;4811789;29;20246;-83
2021/12/25 03:03:28;;;;;;;2.17;1.73;;;;;;;-6.75;95.49;101348.06;4820129;29;20207;-83
2021/12/25 03:05:53;;;;;;;4.75;1.30;;;;;;;-6.83;95.12;101344.25;4824444;29;20690;-83
2021/12/25 03:08:20;;;;;;;3.95;1.70;;;;;;;-6.87;95.73;101344.97;4825387;29;20266;-83
2021/12/25 03:10:53;;;;;;;2.65;1.20;;;;;;;-6.84;95.81;101339.91;4824789;29;20638;-84
2021/12/25 03:13:32;;;;;;;3.70;1.42;;;;;;;-6.92;95.78;101343.91;4824409;29;20218;-83
2021/12/25 03:16:07;;;;;;;2.42;1.30;;;;;;;-6.82;95.93;101348.66;4808898;29;20247;-83
2021/12/25 03:18:41;;;;;;;4.63;1.20;;;;;;;-6.74;96.23;101346.34;4808625;29;20629;-83
2021/12/25 03:21:08;;;;;;;1.38;1.23;;;;;;;-6.64;96.56;101354.59;4823097;29;20910;-83
2021/12/25 03:23:36;;;;;;;3.17;1.08;;;;;;;-6.64;96.16;101357.22;4809344;29;20192;-84
2021/12/25 03:26:04;;;;;;;3.22;1.08;;;;;;;-6.65;96.34;101371.09;4823394;29;20194;-82
2021/12/25 03:28:32;;;;;;;3.33;1.40;;;;;;;-6.65;96.22;101375.38;4822890;29;20179;-82
2021/12/25 03:31:03;;;;;;;3.83;1.30;;;;;;;-6.72;96.03;101376.84;4823217;29;20226;-83
2021/12/25 03:33:29;;;;;;;2.75;1.50;;;;;;;-6.69;96.00;101374.38;4823408;29;20339;-83
2021/12/25 03:35:55;;;;;;;3.60;1.65;;;;;;;-6.82;95.97;101364.28;4823930;29;20237;-82
2021/12/25 03:38:21;;;;;;;3.05;1.60;;;;;;;-6.79;95.97;101368.75;4808831;29;20258;-82
2021/12/25 03:40:48;;;;;;;3.25;1.40;;;;;;;-6.75;95.84;101360.22;4808760;29;20216;-82
2021/12/25 03:43:15;;;;;;;2.15;1.42;;;;;;;-6.79;96.06;101361.81;4838264;29;20175;-82
2021/12/25 03:45:40;;;;;;;1.38;1.27;;;;;;;-6.86;95.34;101367.59;4823641;29;20180;-83
2021/12/25 03:48:14;;;;;;;4.05;1.42;;;;;;;-6.82;95.64;101366.00;4823163;29;20641;-83
2021/12/25 03:58:54;;;;;;;3.42;1.60;;;;;;;-7.03;95.25;101374.72;4808312;29;20293;-82
2021/12/25 04:01:30;;;;;;;4.82;1.20;;;;;;;-7.07;95.38;101394.50;4823665;29;20403;-82
2021/12/25 04:04:14;;;;;;;4.07;1.23;;;;;;;-7.03;95.25;101392.06;4823354;29;20194;-83
2021/12/25 04:06:54;;;;;;;2.38;1.13;;;;;;;-7.01;95.33;101390.41;4823697;29;20184;-83
2021/12/25 04:09:27;;;;;;;2.10;1.05;;;;;;;-7.02;95.14;101394.69;4808688;29;20269;-82
2021/12/25 04:11:54;;;;;;;4.10;1.30;;;;;;;-7.00;95.03;101393.06;4825549;29;20203;-81
2021/12/25 04:14:20;;;;;;;2.70;1.42;;;;;;;-7.11;94.60;101387.38;4839532;29;20293;-82
2021/12/25 04:16:46;;;;;;;1.95;1.35;;;;;;;-7.14;94.66;101384.66;4822089;29;20506;-82
2021/12/25 04:19:13;;;;;;;4.47;1.80;;;;;;;-7.20;94.80;101380.91;4823394;29;20188;-82
2021/12/25 04:21:48;;;;;;;4.45;1.17;;;;;;;-7.41;94.59;101386.09;4807824;29;20701;-83
2021/12/25 04:24:14;;;;;;;2.35;1.38;;;;;;;-7.29;95.11;101384.91;4822926;29;20282;-82
2021/12/25 04:26:42;;;;;;;2.97;1.20;;;;;;;-7.30;95.43;101385.75;4823506;29;20472;-82
2021/12/25 05:04:41;;;;;;;1.95;1.42;;;;;;;-7.47;95.59;101405.81;4831493;29;20210;-82
2021/12/25 05:07:17;;;;;;;2.90;1.50;;;;;;;-7.50;95.37;101405.69;4808763;29;20171;-82
2021/12/25 05:09:43;;;;;;;3.47;1.65;;;;;;;-7.42;95.29;101393.00;4811163;29;20714;-82
2021/12/25 05:12:09;;;;;;;10.27;2.08;;;;;;;-7.60;95.17;101403.50;4826665;29;20182;-82
2021/12/25 05:14:39;;;;;;;2.03;1.58;;;;;;;-7.64;94.86;101404.19;4812166;29;20182;-82
2021/12/25 05:17:06;;;;;;;2.70;1.65;;;;;;;-7.59;95.48;101397.47;4812387;29;20179;-82
2021/12/25 05:19:32;;;;;;;6.75;1.98;;;;;;;-7.57;95.43;101397.53;4828812;29;20184;-83
2021/12/25 05:21:58;;;;;;;3.63;1.92;;;;;;;-7.73;95.69;101395.97;4827255;29;20210;-82
2021/12/25 05:24:24;;;;;;;1.73;1.63;;;;;;;-7.85;96.14;101403.22;4810376;29;20612;-82
2021/12/25 05:26:57;;;;;;;1.75;1.60;;;;;;;-7.97;96.58;101408.75;4809448;29;20732;-82
2021/12/25 05:29:25;;;;;;;3.35;1.75;;;;;;;-8.08;97.13;101403.94;4839939;29;20194;-81
2021/12/25 05:31:53;;;;;;;3.35;1.80;;;;;;;-7.95;97.45;101412.31;4812442;29;20198;-82
2021/12/25 05:34:26;;;;;;;2.22;1.80;;;;;;;-7.88;97.50;101410.06;4812818;29;20178;-82
2021/12/25 05:37:11;;;;;;;2.58;1.98;;;;;;;-7.91;97.29;101414.25;4828835;29;20253;-83
2021/12/25 05:40:05;;;;;;;2.45;2.10;;;;;;;-7.87;97.96;101401.44;4825886;29;20198;-82
2021/12/25 05:42:36;;;;;;;4.82;2.08;;;;;;;-7.91;97.13;101422.03;4811328;29;20579;-82
2021/12/25 05:45:02;;;;;;;2.25;1.38;;;;;;;-7.83;97.86;101418.06;4810609;29;20272;-82
2021/12/25 05:47:38;;;;;;;2.25;1.70;;;;;;;-8.08;97.54;101403.06;4825563;29;20162;-82
2021/12/25 05:50:30;;;;;;;1.50;1.40;;;;;;;-8.02;97.68;101410.22;4831254;29;20249;-82
2021/12/25 05:53:16;;;;;;;3.08;1.40;;;;;;;-7.98;97.41;101413.06;4818360;29;20291;-82
2021/12/25 05:55:41;;;;;;;2.83;1.63;;;;;;;-8.00;97.43;101422.50;4825476;29;20691;-83
2021/12/25 05:58:33;;;;;;;3.88;1.65;;;;;;;-8.11;97.48;101421.09;4816491;29;20265;-82
2021/12/25 06:01:14;;;;;;;3.10;2.00;;;;;;;-8.13;97.52;101427.97;4816783;29;20659;-82
2021/12/25 06:03:40;;;;;;;2.97;1.60;;;;;;;-8.20;97.13;101416.38;4802310;29;20211;-82
2021/12/25 06:06:06;;;;;;;2.53;1.80;;;;;;;-8.29;97.36;101421.13;4793096;29;20298;-83
2021/12/25 06:08:33;;;;;;;1.75;1.42;;;;;;;-8.17;97.33;101426.03;4795370;29;20257;-82
2021/12/25 06:10:59;;;;;;;4.88;2.30;;;;;;;-8.20;96.70;101418.06;4796274;29;20716;-82
2021/12/25 06:13:24;;;;;;;4.60;1.65;;;;;;;-8.23;96.95;101429.22;4795825;29;20235;-82
2021/12/25 06:15:52;;;;;;;2.20;1.77;;;;;;;-8.31;96.83;101428.88;4795819;29;20204;-82
2021/12/25 06:18:36;;;;;;;3.72;1.90;;;;;;;-8.25;96.81;101440.38;4796753;29;20636;-82
2021/12/25 06:21:12;;;;;;;1.67;1.50;;;;;;;-8.32;96.50;101427.06;4794545;29;20234;-83
2021/12/25 06:23:52;;;;;;;1.77;1.60;;;;;;;-8.30;96.19;101429.75;4795628;29;20178;-83
2021/12/25 06:26:31;;;;;;;3.70;1.52;;;;;;;-8.46;96.69;101424.66;4810776;29;20180;-83
2021/12/25 06:29:19;;;;;;;3.75;1.92;;;;;;;-8.48;96.31;101422.00;4794285;29;20231;-83
2021/12/25 06:32:03;;;;;;;2.22;1.70;;;;;;;-8.61;96.57;101422.22;4810873;29;20600;-82
2021/12/25 06:34:41;;;;;;;2.65;1.50;;;;;;;-8.48;96.83;101426.28;4810974;29;20187;-83
2021/12/25 06:37:24;;;;;;;3.13;1.75;;;;;;;-8.45;96.90;101423.84;4810492;29;20220;-82
2021/12/25 06:40:10;;;;;;;4.10;1.83;;;;;;;-8.48;96.50;101432.41;4811681;29;20236;-83
2021/12/25 06:42:47;;;;;;;1.92;1.70;;;;;;;-8.45;96.76;101422.13;4847876;29;20209;-86
2021/12/25 06:45:13;;;;;;;1.50;1.35;;;;;;;-8.46;96.85;101435.97;4797311;29;20199;-87
2021/12/25 06:47:40;;;;;;;1.90;1.52;;;;;;;-8.45;96.04;101440.34;4814060;29;20409;-86
2021/12/25 06:50:11;;;;;;;2.55;1.88;;;;;;;-8.46;96.66;101446.34;4860472;29;20341;-87
2021/12/25 06:53:05;;;;;;;1.92;1.58;;;;;;;-8.72;96.51;101443.38;4842292;29;20194;-88
2021/12/25 06:55:49;;;;;;;2.17;1.40;;;;;;;-8.95;96.28;101433.53;4876184;29;20755;-87
2021/12/25 06:58:33;;;;;;;3.40;1.50;;;;;;;-8.85;97.27;101434.91;4849841;29;20190;-87
2021/12/25 07:00:58;;;;;;;5.63;1.80;;;;;;;-8.84;96.93;101447.06;4862534;29;20267;-88
2021/12/25 07:03:26;;;;;;;4.20;2.03;;;;;;;-8.77;96.97;101444.81;4840826;29;20699;-88
2021/12/25 07:06:24;;;;;;;3.70;1.75;;;;;;;-8.80;96.68;101439.50;4854443;29;20191;-88
2021/12/25 07:09:19;;;;;;;3.05;1.73;;;;;;;-8.84;97.02;101432.34;4839780;29;20252;-88
2021/12/25 07:12:19;;;;;;;3.88;2.08;;;;;;;-8.88;96.72;101438.22;4845417;29;20190;-88
2021/12/25 07:15:02;;;;;;;2.97;1.70;;;;;;;-8.83;96.83;101439.34;4831194;29;20182;-88
2021/12/25 07:17:47;;;;;;;2.45;1.80;;;;;;;-9.17;95.95;101437.63;4842444;29;20185;-87
2021/12/25 07:20:50;;;;;;;3.05;1.73;;;;;;;-9.16;96.52;101454.09;4842285;29;20731;-87
2021/12/25 07:23:40;;;;;;;2.75;1.80;;;;;;;-9.20;96.52;101445.28;4843254;29;20691;-87
2021/12/25 07:26:12;;;;;;;2.43;1.80;;;;;;;-9.22;96.82;101444.31;4842933;29;20211;-87
2021/12/25 07:28:56;;;;;;;2.97;1.70;;;;;;;-9.21;96.53;101461.63;4829020;29;20327;-86
2021/12/25 07:31:21;;;;;;;3.67;2.07;;;;;;;-9.22;96.46;101453.78;4857843;29;20198;-87
2021/12/25 07:33:48;;;;;;;5.93;1.90;;;;;;;-9.18;96.33;101460.94;4837645;29;20194;-87
2021/12/25 07:36:14;;;;;;;4.50;1.93;;;;;;;-9.28;96.09;101462.13;4823628;29;20650;-86
2021/12/25 07:38:40;;;;;;;7.10;2.43;;;;;;;-9.27;96.41;101450.97;4844063;29;20418;-86
2021/12/25 07:41:06;;;;;;;5.13;2.20;;;;;;;-9.34;96.14;101449.72;4860169;29;20218;-86
2021/12/25 07:43:32;;;;;;;5.13;2.10;;;;;;;-9.37;96.24;101453.88;4861743;29;20186;-87
2021/12/25 07:46:03;;;;;;;2.47;1.98;;;;;;;-9.26;96.27;101451.84;4846588;29;20210;-87
2021/12/25 07:48:29;;;;;;;3.88;1.65;;;;;;;-9.18;95.93;101437.56;4875561;29;20182;-87
2021/12/25 07:50:55;;;;;;;4.57;2.10;;;;;;;-9.25;95.95;101443.25;4876620;29;20233;-87
2021/12/25 07:53:21;;;;;;;3.90;2.10;;;;;;;-9.22;96.27;101444.31;4845848;29;20633;-87
2021/12/25 07:55:48;;;;;;;8.48;4.00;;;;;;;-9.40;95.27;101452.03;4839637;29;20195;-85
2021/12/25 07:58:15;;;;;;;4.55;2.78;;;;;;;-9.26;96.06;101465.72;4865357;29;20210;-86
2021/12/25 08:00:41;;;;;;;6.80;2.63;;;;;;;-9.22;95.97;101446.00;4860259;29;20205;-87
2021/12/25 08:03:07;;;;;;;3.72;2.17;;;;;;;-9.45;95.93;101445.69;4845389;29;20801;-87
2021/12/25 08:05:33;;;;;;;7.63;2.17;;;;;;;-9.54;95.75;101435.72;4860507;29;20271;-87
2021/12/25 08:07:59;;;;;;;4.30;2.42;;;;;;;-9.38;96.86;101446.91;4876030;29;20312;-86
2021/12/25 08:10:25;;;;;;;3.17;2.23;;;;;;;-9.49;96.12;101455.81;4845225;29;20202;-86
2021/12/25 08:12:53;;;;;;;5.00;2.47;;;;;;;-9.42;96.85;101461.44;4845387;29;20269;-86
2021/12/25 08:15:22;;;;;;;3.27;2.17;;;;;;;-9.36;96.80;101466.94;4876136;29;20194;-86
2021/12/25 08:17:48;;;;;;;4.55;2.38;;;;;;;-9.26;96.63;101452.75;4860300;29;20178;-86
2021/12/25 08:20:31;;;;;;;3.83;2.30;;;;;;;-9.15;96.55;101461.97;4861120;29;20281;-86
2021/12/25 08:23:15;;;;;;;3.17;2.35;;;;;;;-9.03;96.15;101466.00;4874183;29;20165;-86
2021/12/25 08:26:00;;;;;;;5.57;3.37;;;;;;;-9.08;96.42;101472.66;4861184;29;20360;-86
2021/12/25 08:29:04;;;;;;;5.90;3.60;;;;;;;-9.03;96.46;101466.00;4848515;29;20198;-86
2021/12/25 08:31:48;;;;;;;7.57;2.85;;;;;;;-8.96;96.21;101460.31;4847179;29;20256;-86
2021/12/25 08:34:46;;;;;;;6.10;3.00;;;;;;;-8.91;96.14;101462.31;4829878;29;20266;-89
2021/12/25 08:37:24;;;;;;;4.65;2.30;;;;;;;-8.83;96.01;101457.53;4852563;29;20277;-87
2021/12/25 08:39:51;;;;;;;4.20;2.05;;;;;;;-8.62;96.86;101462.00;4850623;29;20206;-86
2021/12/25 08:42:17;;;;;;;4.40;2.37;;;;;;;-8.57;96.05;101457.91;4865049;29;20218;-86
2021/12/25 08:47:38;;;;;;;2.33;2.08;;;;;;;-8.56;95.95;101460.59;4864650;29;20267;-86
2021/12/25 08:50:07;;;;;;;3.10;2.30;;;;;;;-8.52;96.08;101462.53;4881347;29;20653;-85
2021/12/25 08:52:33;;;;;;;3.55;2.47;;;;;;;-8.35;95.81;101465.91;4834871;29;20194;-89
2021/12/25 08:54:58;;;;;;;2.37;1.90;;;;;;;-8.24;95.97;101465.53;4837717;29;20758;-85
2021/12/25 08:57:25;;;;;;;2.60;2.13;;;;;;;-8.14;96.37;101457.34;4849951;29;20187;-86
2021/12/25 08:59:54;;;;;;;4.97;2.38;;;;;;;-7.98;95.75;101456.38;4850305;29;20603;-86
2021/12/25 09:02:21;;;;;;;3.50;2.22;;;;;;;-7.90;94.99;101460.22;4826561;29;20304;-86
2021/12/25 09:04:49;;;;;;;7.28;2.40;;;;;;;-7.86;95.22;101456.94;4826273;29;20732;-85
2021/12/25 09:07:15;;;;;;;2.83;2.17;;;;;;;-7.78;94.71;101468.59;4825779;29;20170;-86
2021/12/25 09:09:41;;;;;;;2.35;1.92;;;;;;;-7.69;94.78;101465.53;4841125;29;20202;-85
2021/12/25 09:12:14;;;;;;;2.47;2.05;;;;;;;-7.62;94.09;101462.38;4841423;29;20383;-86
2021/12/25 09:14:39;;;;;;;3.35;2.30;;;;;;;-7.43;94.42;101469.31;4841296;29;20178;-85
2021/12/25 09:17:05;;;;;;;4.00;2.08;;;;;;;-7.28;94.85;101479.50;4840794;29;20230;-86
2021/12/25 09:19:31;;;;;;;3.90;2.30;;;;;;;-7.16;93.85;101472.25;4825786;29;20183;-87
2021/12/25 09:21:57;;;;;;;5.05;2.75;;;;;;;-7.16;93.94;101464.44;4825855;29;20194;-86
2021/12/25 09:24:23;;;;;;;4.28;2.45;;;;;;;-7.13;93.86;101468.88;4840530;29;20194;-86
2021/12/25 09:26:49;;;;;;;5.18;2.88;;;;;;;-7.09;93.68;101463.88;4826134;29;20239;-86
2021/12/25 09:29:14;;;;;;;3.17;2.50;;;;;;;-6.87;93.34;101462.19;4840255;29;20222;-86
2021/12/25 09:31:40;;;;;;;3.95;2.10;;;;;;;-6.79;93.51;101471.22;4825490;29;20229;-86
2021/12/25 09:34:05;;;;;;;4.07;2.20;;;;;;;-6.62;92.72;101474.56;4829893;29;20247;-87
2021/12/25 09:36:32;;;;;;;3.13;2.38;;;;;;;-6.49;92.67;101474.22;4843750;29;20181;-87
2021/12/25 09:38:57;;;;;;;2.25;1.95;;;;;;;-6.34;93.15;101478.28;4842921;29;20175;-87
2021/12/25 09:41:23;;;;;;;5.03;2.28;;;;;;;-6.15;91.77;101477.31;4842701;29;20750;-87
2021/12/25 09:43:49;;;;;;;8.77;2.58;;;;;;;-5.97;91.81;101478.03;4862020;29;20256;-85
2021/12/25 09:46:21;;;;;;;5.25;1.80;;;;;;;-5.88;91.22;101480.06;4849217;29;20220;-87
2021/12/25 09:48:47;;;;;;;3.22;1.80;;;;;;;-5.73;90.12;101472.81;4853219;29;20334;-88
2021/12/25 09:51:13;;;;;;;4.85;1.40;;;;;;;-5.49;89.50;101471.97;4881596;29;20218;-86
2021/12/25 09:53:39;;;;;;;3.75;1.92;;;;;;;-5.31;88.10;101472.69;4843576;29;20185;-85
2021/12/25 09:56:06;;;;;;;5.28;1.30;;;;;;;-5.32;87.10;101472.63;4844242;29;20181;-86
2021/12/25 09:58:31;;;;;;;1.70;1.35;;;;;;;-5.10;86.31;101472.53;4843644;29;20546;-86
2021/12/25 10:00:58;;;;;;;2.58;1.90;;;;;;;-4.92;85.80;101474.03;4844000;29;20201;-87
2021/12/25 10:03:40;;;;;;;2.97;2.33;;;;;;;-4.80;85.94;101469.25;4834865;29;20202;-87
2021/12/25 10:06:05;;;;;;;5.57;2.65;;;;;;;-4.67;84.90;101463.59;4840703;29;20250;-86
2021/12/25 10:08:30;;;;;;;2.75;2.03;;;;;;;-4.75;84.13;101457.22;4856196;29;20695;-86
2021/12/25 10:11:01;;;;;;;3.50;2.08;;;;;;;-4.56;83.16;101464.84;4841053;29;20199;-86
2021/12/25 10:13:36;;;;;;;4.55;1.70;;;;;;;-4.34;82.70;101470.78;4842169;29;20190;-86
2021/12/25 10:16:25;;;;;;;3.40;1.70;;;;;;;-4.30;81.78;101467.44;4856682;29;20178;-86
2021/12/25 10:18:53;;;;;;;4.50;1.67;;;;;;;-4.35;79.76;101469.03;4857169;29;20209;-87
2021/12/25 10:21:28;;;;;;;3.15;1.45;;;;;;;-4.33;78.67;101471.66;4857677;29;20215;-87
2021/12/25 10:24:04;;;;;;;4.47;1.95;;;;;;;-4.33;77.19;101458.59;4859199;29;20648;-86
2021/12/25 10:26:30;;;;;;;1.83;1.30;;;;;;;-4.22;76.66;101462.44;4843002;29;20239;-87
2021/12/25 10:28:55;;;;;;;4.28;1.98;;;;;;;-3.90;78.56;101470.44;4858998;29;20198;-87
2021/12/25 10:31:32;;;;;;;2.00;1.13;;;;;;;-3.89;77.46;101457.41;4865206;29;20213;-86
2021/12/25 10:33:57;;;;;;;1.75;1.50;;;;;;;-4.05;75.27;101455.13;4849496;29;20186;-87
2021/12/25 10:36:30;;;;;;;1.30;1.20;;;;;;;-4.12;73.85;101461.91;4841361;29;20704;-87
2021/12/25 10:38:58;;;;;;;1.15;1.05;;;;;;;-4.02;73.81;101468.31;4856466;29;20171;-88
2021/12/25 10:41:24;;;;;;;3.03;1.20;;;;;;;-4.01;72.39;101468.34;4841001;29;20230;-87
2021/12/25 10:43:53;;;;;;;2.45;1.23;;;;;;;-4.02;71.27;101455.25;4840653;29;20179;-86
2021/12/25 10:46:20;;;;;;;1.77;1.10;;;;;;;-3.96;71.45;101463.25;4826001;29;20277;-88
2021/12/25 10:48:45;;;;;;;5.10;1.30;;;;;;;-4.00;71.03;101458.75;4825441;29;20252;-87
2021/12/25 10:51:26;;;;;;;2.08;1.25;;;;;;;-3.93;70.47;101458.13;4841140;29;20197;-88
2021/12/25 10:53:53;;;;;;;1.40;1.30;;;;;;;-3.85;71.28;101454.00;4862292;29;20222;-87
2021/12/25 10:56:20;;;;;;;3.97;1.40;;;;;;;-3.88;70.67;101461.78;4863917;29;20211;-86
2021/12/25 10:58:46;;;;;;;3.50;1.45;;;;;;;-3.94;70.46;101451.09;4859908;29;20266;-87
2021/12/25 11:01:14;;;;;;;2.85;1.40;;;;;;;-3.88;70.11;101463.50;4829990;29;20215;-85
2021/12/25 11:03:42;;;;;;;1.98;1.08;;;;;;;-3.86;70.81;101456.59;4854839;29;20549;-87
2021/12/25 11:06:14;;;;;;;4.45;1.50;;;;;;;-3.86;70.81;101459.22;4843347;29;20885;-87
2021/12/25 11:08:40;;;;;;;1.02;0.93;;;;;;;-3.86;70.86;101465.31;4826701;29;20610;-86
2021/12/25 11:11:20;;;;;;;5.40;1.00;;;;;;;-3.84;70.57;101463.66;4843030;29;20195;-87
2021/12/25 11:13:49;;;;;;;1.52;1.08;;;;;;;-3.89;69.60;101472.19;4827674;29;20244;-87
2021/12/25 11:16:30;;;;;;;2.47;1.00;;;;;;;-3.79;68.84;101469.03;4827517;29;20174;-86
2021/12/25 11:19:16;;;;;;;3.10;1.45;;;;;;;-3.80;69.24;101473.38;4826838;29;20935;-86
2021/12/25 11:21:45;;;;;;;5.30;1.42;;;;;;;-3.78;68.49;101471.69;4827247;29;20225;-86
2021/12/25 11:24:19;;;;;;;3.47;1.00;;;;;;;-3.74;68.91;101463.09;4827168;29;20246;-87
2021/12/25 11:26:50;;;;;;;3.63;1.02;;;;;;;-3.59;68.30;101453.91;4827404;29;20185;-86
2021/12/25 11:29:20;;;;;;;2.58;1.13;;;;;;;-3.55;68.26;101463.63;4858059;29;20187;-87
2021/12/25 11:31:48;;;;;;;2.63;1.15;;;;;;;-3.50;68.43;101467.25;4844359;29;20705;-85
2021/12/25 11:34:15;;;;;;;1.23;1.20;;;;;;;-3.47;68.12;101467.38;4843383;29;20179;-87
2021/12/25 11:36:45;;;;;;;3.25;1.15;;;;;;;-3.49;68.10;101476.91;4829972;29;20182;-86
2021/12/25 11:39:11;;;;;;;2.72;0.82;;;;;;;-3.41;67.69;101469.25;4827325;29;20222;-86
2021/12/25 11:41:38;;;;;;;1.65;0.80;;;;;;;-3.37;67.00;101469.41;4842102;29;20207;-86
2021/12/25 11:44:07;;;;;;;2.05;1.08;;;;;;;-3.39;66.20;101465.88;4842602;29;20193;-85
2021/12/25 11:46:44;;;;;;;1.77;1.02;;;;;;;-3.44;66.27;101472.69;4826815;29;20225;-86
2021/12/25 11:49:14;;;;;;;1.98;0.70;;;;;;;-3.36;66.05;101462.44;4841969;29;20242;-86
2021/12/25 11:51:43;;;;;;;3.22;0.88;;;;;;;-3.39;65.90;101467.56;4826552;29;20377;-86
2021/12/25 11:59:46;;;;;;;1.92;0.80;;;;;;;-3.11;65.68;101471.88;4843368;29;20211;-85
2021/12/25 12:02:32;;;;;;;2.00;0.80;;;;;;;-3.08;66.21;101456.25;4830588;29;20262;-85
2021/12/25 12:05:16;;;;;;;2.45;0.80;;;;;;;-3.07;65.99;101455.38;4841234;29;20237;-85
2021/12/25 12:08:09;;;;;;;1.23;0.82;;;;;;;-2.93;66.43;101451.41;4812172;29;20180;-86
2021/12/25 12:11:01;;;;;;;2.25;0.93;;;;;;;-3.01;65.18;101450.31;4830373;29;20218;-86
2021/12/25 12:13:45;;;;;;;4.07;0.80;;;;;;;-3.10;65.54;101442.22;4829138;29;20260;-86
2021/12/25 12:16:39;;;;;;;1.85;0.90;;;;;;;-3.05;66.81;101452.81;4817602;29;20202;-86
2021/12/25 12:19:31;;;;;;;3.70;1.08;;;;;;;-3.07;65.98;101455.38;4827772;29;20266;-87
2021/12/25 12:22:26;;;;;;;2.28;1.00;;;;;;;-3.22;66.42;101461.09;4828119;29;20218;-87
2021/12/25 12:25:26;;;;;;;4.55;1.27;;;;;;;-3.32;66.35;101449.47;4823655;29;20175;-87
2021/12/25 12:27:59;;;;;;;2.75;1.00;;;;;;;-3.27;67.44;101448.72;4822758;29;20164;-87
2021/12/25 12:30:30;;;;;;;0.80;0.80;;;;;;;-3.19;66.82;101452.41;4807757;29;20665;-87
2021/12/25 12:32:57;;;;;;;1.48;1.00;;;;;;;-3.29;66.61;101461.75;4807836;29;20195;-87
2021/12/25 12:35:32;;;;;;;2.97;1.10;;;;;;;-3.38;67.04;101448.41;4823472;29;20227;-87
2021/12/25 12:38:30;;;;;;;3.45;0.90;;;;;;;-3.28;65.74;101444.31;4807614;29;20251;-87
2021/12/25 12:41:24;;;;;;;2.78;0.95;;;;;;;-3.37;66.62;101453.69;4903446;24;20281;-86
2021/12/25 12:44:09;;;;;;;1.80;0.90;;;;;;;-3.28;65.96;101447.84;4861767;29;20237;-86
2021/12/25 12:46:58;;;;;;;2.97;1.10;;;;;;;-3.33;66.51;101439.81;4878370;29;20260;-87
2021/12/25 12:49:53;;;;;;;3.08;0.90;;;;;;;-3.27;66.13;101453.97;4879551;29;20166;-87
2021/12/25 12:52:40;;;;;;;1.20;0.95;;;;;;;-3.31;66.65;101456.47;4830249;29;20546;-87
2021/12/25 12:55:06;;;;;;;1.75;1.00;;;;;;;-3.28;66.49;101458.31;4839186;29;20250;-86
2021/12/25 12:57:40;;;;;;;3.63;1.00;;;;;;;-3.25;65.63;101450.53;4826330;29;20402;-86
2021/12/25 13:00:19;;;;;;;1.95;1.00;;;;;;;-3.22;65.66;101452.34;4825835;29;20873;-86
2021/12/25 13:02:48;;;;;;;1.67;1.00;;;;;;;-3.18;65.59;101456.81;4809291;29;20265;-86